createdAt,value
2023-03-06T00:00:53.239Z,14.47
2023-03-06T00:03:20.058Z,14.48
2023-03-06T00:05:47.061Z,14.48
2023-03-06T00:08:13.633Z,14.48
2023-03-06T00:10:40.623Z,14.49
2023-03-06T00:13:10.523Z,14.50
2023-03-06T00:15:37.275Z,14.51
2023-03-06T00:18:05.192Z,14.52
2023-03-06T00:20:32.770Z,14.52
2023-03-06T00:22:59.353Z,14.52
2023-03-06T00:25:25.937Z,14.54
2023-03-06T00:27:52.564Z,14.55
2023-03-06T00:30:22.308Z,14.55
2023-03-06T00:32:49.450Z,14.54
2023-03-06T00:35:16.552Z,14.54
2023-03-06T00:37:43.194Z,14.54
2023-03-06T00:40:13.052Z,14.52
2023-03-06T00:42:39.726Z,14.51
2023-03-06T00:45:06.808Z,14.51
2023-03-06T00:47:33.411Z,14.52
2023-03-06T00:49:59.981Z,14.50
2023-03-06T00:52:26.560Z,14.48
2023-03-06T00:54:53.121Z,14.49
2023-03-06T00:57:19.713Z,14.48
2023-03-06T00:59:46.288Z,14.46
2023-03-06T01:02:13.005Z,14.47
2023-03-06T01:04:39.645Z,14.48
2023-03-06T01:07:06.242Z,14.47
2023-03-06T01:09:32.851Z,14.46
2023-03-06T01:11:59.470Z,14.46
2023-03-06T01:14:26.318Z,14.46
2023-03-06T01:16:52.999Z,14.45
2023-03-06T01:19:19.902Z,14.46
2023-03-06T01:21:46.480Z,14.44
2023-03-06T01:24:13.053Z,14.44
2023-03-06T01:26:39.645Z,14.44
2023-03-06T01:29:06.425Z,14.45
2023-03-06T01:31:33.481Z,14.46
2023-03-06T01:34:00.304Z,14.47
2023-03-06T01:36:26.871Z,14.48
2023-03-06T01:38:53.491Z,14.49
2023-03-06T01:41:21.497Z,14.51
2023-03-06T01:43:48.671Z,14.52
2023-03-06T01:46:33.745Z,14.53
2023-03-06T01:49:09.705Z,14.54
2023-03-06T01:51:41.300Z,14.53
2023-03-06T01:54:13.667Z,14.53
2023-03-06T01:56:42.453Z,14.52
2023-03-06T01:59:09.214Z,14.54
2023-03-06T02:01:39.372Z,14.53
2023-03-06T02:04:06.758Z,14.53
2023-03-06T02:06:37.960Z,14.52
2023-03-06T02:09:05.942Z,14.51
2023-03-06T02:11:32.596Z,14.49
2023-03-06T02:13:59.219Z,14.49
2023-03-06T02:16:29.011Z,14.48
2023-03-06T02:18:56.103Z,14.50
2023-03-06T02:21:40.695Z,14.48
2023-03-06T02:24:13.205Z,14.46
2023-03-06T02:26:41.494Z,14.46
2023-03-06T02:29:09.110Z,14.46
2023-03-06T02:31:36.074Z,14.46
2023-03-06T02:34:06.360Z,14.42
2023-03-06T02:36:37.042Z,14.43
2023-03-06T02:39:04.126Z,14.44
2023-03-06T02:41:32.979Z,14.43
2023-03-06T02:43:59.520Z,14.43
2023-03-06T02:46:26.125Z,14.43
2023-03-06T02:48:52.761Z,14.44
2023-03-06T02:51:19.301Z,14.45
2023-03-06T02:53:45.902Z,14.46
2023-03-06T02:56:12.659Z,14.47
2023-03-06T02:58:39.222Z,14.48
2023-03-06T03:01:05.929Z,14.50
2023-03-06T03:03:33.288Z,14.51
2023-03-06T03:06:00.710Z,14.51
2023-03-06T03:08:28.357Z,14.52
2023-03-06T03:10:56.378Z,14.51
2023-03-06T03:13:23.455Z,14.51
2023-03-06T03:16:08.140Z,14.51
2023-03-06T03:18:35.622Z,14.50
2023-03-06T03:21:02.621Z,14.49
2023-03-06T03:23:29.145Z,14.47
2023-03-06T03:25:55.718Z,14.49
2023-03-06T03:28:22.270Z,14.47
2023-03-06T03:30:49.000Z,14.47
2023-03-06T03:33:15.607Z,14.46
2023-03-06T03:35:42.237Z,14.45
2023-03-06T03:38:08.876Z,14.44
2023-03-06T03:40:35.428Z,14.45
2023-03-06T03:43:01.977Z,14.46
2023-03-06T03:45:28.532Z,14.44
2023-03-06T03:47:55.052Z,14.44
2023-03-06T03:50:22.302Z,14.44
2023-03-06T03:52:48.881Z,14.43
2023-03-06T03:55:15.467Z,14.43
2023-03-06T03:57:43.164Z,14.43
2023-03-06T04:00:14.819Z,14.43
2023-03-06T04:02:41.724Z,14.42
2023-03-06T04:05:08.788Z,14.43
2023-03-06T04:07:35.382Z,14.44
2023-03-06T04:10:01.943Z,14.44
2023-03-06T04:12:28.469Z,14.47
2023-03-06T04:14:55.042Z,14.47
2023-03-06T04:17:21.665Z,14.48
2023-03-06T04:19:48.236Z,14.48
2023-03-06T04:22:14.782Z,14.48
2023-03-06T04:24:41.320Z,14.49
2023-03-06T04:27:07.904Z,14.50
2023-03-06T04:29:34.453Z,14.50
2023-03-06T04:32:02.164Z,14.49
2023-03-06T04:34:28.756Z,14.49
2023-03-06T04:36:55.301Z,14.48
2023-03-06T04:39:21.954Z,14.48
2023-03-06T04:41:48.524Z,14.47
2023-03-06T04:44:15.263Z,14.46
2023-03-06T04:46:41.886Z,14.47
2023-03-06T04:49:08.503Z,14.44
2023-03-06T04:51:36.842Z,14.42
2023-03-06T04:54:04.381Z,14.43
2023-03-06T04:56:31.050Z,14.43
2023-03-06T04:58:57.759Z,14.42
2023-03-06T05:01:24.377Z,14.41
2023-03-06T05:03:50.983Z,14.41
2023-03-06T05:06:17.559Z,14.39
2023-03-06T05:08:44.140Z,14.39
2023-03-06T05:11:10.687Z,14.39
2023-03-06T05:13:37.263Z,14.39
2023-03-06T05:16:05.054Z,14.38
2023-03-06T05:18:32.704Z,14.39
2023-03-06T05:20:59.831Z,14.37
2023-03-06T05:23:27.724Z,14.37
2023-03-06T05:25:54.290Z,14.40
2023-03-06T05:28:20.926Z,14.39
2023-03-06T05:30:47.906Z,14.41
2023-03-06T05:33:14.478Z,14.40
2023-03-06T05:35:45.765Z,14.44
2023-03-06T05:38:12.293Z,14.45
2023-03-06T05:40:42.636Z,14.47
2023-03-06T05:43:10.355Z,14.48
2023-03-06T05:45:36.948Z,14.48
2023-03-06T05:48:03.753Z,14.49
2023-03-06T05:50:30.324Z,14.49
2023-03-06T05:52:56.948Z,14.49
2023-03-06T05:55:24.392Z,14.49
2023-03-06T05:57:51.416Z,14.48
2023-03-06T06:00:18.682Z,14.48
2023-03-06T06:02:46.098Z,14.48
2023-03-06T06:05:13.351Z,14.46
2023-03-06T06:07:40.198Z,14.46
2023-03-06T06:10:07.260Z,14.44
2023-03-06T06:12:34.184Z,14.45
2023-03-06T06:15:00.743Z,14.43
2023-03-06T06:17:27.309Z,14.42
2023-03-06T06:19:53.909Z,14.41
2023-03-06T06:22:20.459Z,14.41
2023-03-06T06:24:47.041Z,14.41
2023-03-06T06:27:13.643Z,14.41
2023-03-06T06:29:40.243Z,14.40
2023-03-06T06:32:06.975Z,14.39
2023-03-06T06:34:34.185Z,14.40
2023-03-06T06:37:00.759Z,14.38
2023-03-06T06:39:27.297Z,14.38
2023-03-06T06:42:09.717Z,14.39
2023-03-06T06:44:40.420Z,14.39
2023-03-06T06:47:24.840Z,14.39
2023-03-06T06:49:53.982Z,14.41
2023-03-06T06:52:20.613Z,14.42
2023-03-06T06:54:47.186Z,14.43
2023-03-06T06:57:13.808Z,14.45
2023-03-06T06:59:40.413Z,14.46
2023-03-06T07:02:07.192Z,14.46
2023-03-06T07:04:34.177Z,14.47
2023-03-06T07:07:01.171Z,14.47
2023-03-06T07:09:27.792Z,14.47
2023-03-06T07:11:54.406Z,14.48
2023-03-06T07:14:20.965Z,14.48
2023-03-06T07:16:47.543Z,14.46
2023-03-06T07:19:14.200Z,14.46
2023-03-06T07:21:40.834Z,14.45
2023-03-06T07:24:07.468Z,14.45
2023-03-06T07:26:34.968Z,14.44
2023-03-06T07:29:02.124Z,14.44
2023-03-06T07:31:29.012Z,14.43
2023-03-06T07:33:55.955Z,14.43
2023-03-06T07:36:23.432Z,14.44
2023-03-06T07:38:50.111Z,14.42
2023-03-06T07:41:19.809Z,14.44
2023-03-06T07:43:49.142Z,14.42
2023-03-06T07:46:16.207Z,14.42
2023-03-06T07:48:43.113Z,14.41
2023-03-06T07:51:15.747Z,14.42
2023-03-06T07:53:42.648Z,14.42
2023-03-06T07:56:11.086Z,14.40
2023-03-06T07:58:39.405Z,14.39
2023-03-06T08:01:07.795Z,14.41
2023-03-06T08:03:34.437Z,14.41
2023-03-06T08:06:16.421Z,14.42
2023-03-06T08:08:45.389Z,14.41
2023-03-06T08:11:13.739Z,14.44
2023-03-06T08:13:40.802Z,14.44
2023-03-06T08:16:07.842Z,14.45
2023-03-06T08:18:34.521Z,14.47
2023-03-06T08:21:09.874Z,14.48
2023-03-06T08:23:36.928Z,14.49
2023-03-06T08:26:14.384Z,14.49
2023-03-06T08:28:41.269Z,14.48
2023-03-06T08:31:17.275Z,14.49
2023-03-06T08:33:43.889Z,14.49
2023-03-06T08:36:10.452Z,14.48
2023-03-06T08:38:37.048Z,14.48
2023-03-06T08:41:03.789Z,14.47
2023-03-06T08:43:30.414Z,14.44
2023-03-06T08:45:58.339Z,14.44
2023-03-06T08:48:25.524Z,14.45
2023-03-06T08:50:52.832Z,14.43
2023-03-06T08:53:19.700Z,14.43
2023-03-06T08:55:47.527Z,14.42
2023-03-06T08:58:14.197Z,14.43
2023-03-06T09:00:40.815Z,14.41
2023-03-06T09:03:07.382Z,14.42
2023-03-06T09:05:33.961Z,14.41
2023-03-06T09:08:00.502Z,14.41
2023-03-06T09:10:27.803Z,14.41
2023-03-06T09:12:55.164Z,14.41
2023-03-06T09:15:24.783Z,14.40
2023-03-06T09:17:51.578Z,14.38
2023-03-06T09:20:18.723Z,14.40
2023-03-06T09:22:48.050Z,14.39
2023-03-06T09:25:17.588Z,14.40
2023-03-06T09:27:44.175Z,14.42
2023-03-06T09:30:11.628Z,14.44
2023-03-06T09:32:38.230Z,14.44
2023-03-06T09:35:05.194Z,14.46
2023-03-06T09:37:31.774Z,14.47
2023-03-06T09:39:58.333Z,14.51
2023-03-06T09:42:25.210Z,14.52
2023-03-06T09:44:54.050Z,14.53
2023-03-06T09:47:43.513Z,14.53
2023-03-06T09:50:13.086Z,14.51
2023-03-06T09:53:18.256Z,14.51
2023-03-06T09:55:56.732Z,14.51
2023-03-06T09:58:26.032Z,14.50
2023-03-06T10:00:58.077Z,14.50
2023-03-06T10:03:47.323Z,14.50
2023-03-06T10:06:29.948Z,14.48
2023-03-06T10:09:06.884Z,14.46
2023-03-06T10:11:45.047Z,14.46
2023-03-06T10:14:30.538Z,14.46
2023-03-06T10:16:58.481Z,14.46
2023-03-06T10:19:42.254Z,14.43
2023-03-06T10:22:17.900Z,14.43
2023-03-06T10:25:16.701Z,14.42
2023-03-06T10:27:47.888Z,14.41
2023-03-06T10:30:45.058Z,14.41
2023-03-06T10:33:22.600Z,14.42
2023-03-06T10:35:51.730Z,14.41
2023-03-06T10:38:21.055Z,14.42
2023-03-06T10:41:27.825Z,14.40
2023-03-06T10:44:00.406Z,14.41
2023-03-06T10:46:29.673Z,14.43
2023-03-06T10:49:05.314Z,14.43
2023-03-06T10:51:34.029Z,14.46
2023-03-06T10:54:04.234Z,14.47
2023-03-06T10:56:39.390Z,14.49
2023-03-06T10:59:19.137Z,14.47
2023-03-06T11:01:48.577Z,14.49
2023-03-06T11:04:32.111Z,14.51
2023-03-06T11:07:08.055Z,14.50
2023-03-06T11:09:35.598Z,14.49
2023-03-06T11:12:35.401Z,14.49
2023-03-06T11:15:14.310Z,14.48
2023-03-06T11:18:13.371Z,14.47
2023-03-06T11:20:52.071Z,14.46
2023-03-06T11:23:37.305Z,14.46
2023-03-06T11:26:24.757Z,14.46
2023-03-06T11:29:24.898Z,14.47
2023-03-06T11:31:55.601Z,14.45
2023-03-06T11:34:39.974Z,14.44
2023-03-06T11:37:30.764Z,14.44
2023-03-06T11:40:05.219Z,14.43
2023-03-06T11:42:41.995Z,14.44
2023-03-06T11:45:27.857Z,14.43
2023-03-06T11:48:03.514Z,14.43
2023-03-06T11:50:39.189Z,14.44
2023-03-06T11:53:10.470Z,14.43
2023-03-06T11:56:03.592Z,14.42
2023-03-06T11:58:39.236Z,14.43
2023-03-06T12:01:11.781Z,14.43
2023-03-06T12:04:00.164Z,14.46
2023-03-06T12:06:35.731Z,14.45
2023-03-06T12:09:14.360Z,14.45
2023-03-06T12:11:46.122Z,14.47
2023-03-06T12:14:27.763Z,14.47
2023-03-06T12:17:05.637Z,14.49
2023-03-06T12:19:38.400Z,14.49
2023-03-06T12:22:11.474Z,14.51
2023-03-06T12:25:18.322Z,14.50
2023-03-06T12:27:57.097Z,14.49
2023-03-06T12:30:48.213Z,14.49
2023-03-06T12:33:14.715Z,14.48
2023-03-06T12:36:03.429Z,14.48
2023-03-06T12:38:36.020Z,14.48
2023-03-06T12:41:40.044Z,14.48
2023-03-06T12:44:28.000Z,14.49
2023-03-06T12:46:58.325Z,14.48
2023-03-06T12:49:32.368Z,14.48
2023-03-06T12:52:00.312Z,14.48
2023-03-06T12:54:29.588Z,14.46
2023-03-06T12:56:57.259Z,14.46
2023-03-06T12:59:44.701Z,14.44
2023-03-06T13:02:29.655Z,14.43
2023-03-06T13:05:27.214Z,14.44
2023-03-06T13:08:27.843Z,14.44
2023-03-06T13:11:28.478Z,14.43
2023-03-06T13:13:55.083Z,14.42
2023-03-06T13:16:25.586Z,14.42
2023-03-06T13:19:04.532Z,14.44
2023-03-06T13:21:44.482Z,14.44
2023-03-06T13:24:40.202Z,14.47
2023-03-06T13:27:09.363Z,14.48
2023-03-06T13:29:35.868Z,14.50
2023-03-06T13:32:02.353Z,14.52
2023-03-06T13:34:31.722Z,14.54
2023-03-06T13:37:16.700Z,14.54
2023-03-06T13:39:55.485Z,14.56
2023-03-06T13:42:32.791Z,14.56
2023-03-06T13:45:16.730Z,14.56
2023-03-06T13:48:25.015Z,14.55
2023-03-06T13:50:44.582Z,14.53
2023-03-06T13:53:53.154Z,14.53
2023-03-06T13:56:28.878Z,14.54
2023-03-06T13:59:23.598Z,14.52
2023-03-06T14:02:12.302Z,14.52
2023-03-06T14:04:54.845Z,14.52
2023-03-06T14:07:23.772Z,14.51
2023-03-06T14:09:56.429Z,14.49
2023-03-06T14:12:26.782Z,14.49
2023-03-06T14:15:13.535Z,14.48
2023-03-06T14:18:05.957Z,14.48
2023-03-06T14:20:42.770Z,14.47
2023-03-06T14:23:21.206Z,14.47
2023-03-06T14:25:51.981Z,14.44
2023-03-06T14:28:32.263Z,14.44
2023-03-06T14:31:00.533Z,14.44
2023-03-06T14:33:39.964Z,14.44
2023-03-06T14:36:10.278Z,14.44
2023-03-06T14:38:43.565Z,14.45
2023-03-06T14:41:11.807Z,14.45
2023-03-06T14:43:39.576Z,14.48
2023-03-06T14:46:06.872Z,14.50
2023-03-06T14:48:42.520Z,14.50
2023-03-06T14:51:27.496Z,14.50
2023-03-06T14:53:55.570Z,14.53
2023-03-06T14:56:23.860Z,14.52
2023-03-06T14:58:56.187Z,14.53
2023-03-06T15:01:36.793Z,14.54
2023-03-06T15:04:15.014Z,14.54
2023-03-06T15:06:43.287Z,14.53
2023-03-06T15:09:25.796Z,14.51
2023-03-06T15:11:55.874Z,14.50
2023-03-06T15:14:31.055Z,14.50
2023-03-06T15:17:17.566Z,14.52
2023-03-06T15:19:46.742Z,14.50
2023-03-06T15:22:24.675Z,14.50
2023-03-06T15:24:51.416Z,14.50
2023-03-06T15:27:21.043Z,14.51
2023-03-06T15:29:47.610Z,14.50
2023-03-06T15:32:30.508Z,14.51
2023-03-06T15:35:29.268Z,14.50
2023-03-06T15:37:57.049Z,14.48
2023-03-06T15:40:26.178Z,14.49
2023-03-06T15:42:53.180Z,14.48
2023-03-06T15:45:25.352Z,14.48
2023-03-06T15:47:53.146Z,14.47
2023-03-06T15:50:22.977Z,14.46
2023-03-06T15:52:50.254Z,14.46
2023-03-06T15:55:20.106Z,14.46
2023-03-06T15:57:52.983Z,14.46
2023-03-06T16:00:32.651Z,14.47
2023-03-06T16:02:59.282Z,14.48
2023-03-06T16:05:27.035Z,14.47
2023-03-06T16:07:54.050Z,14.49
2023-03-06T16:10:24.606Z,14.51
2023-03-06T16:12:54.796Z,14.51
2023-03-06T16:15:23.508Z,14.52
2023-03-06T16:17:50.098Z,14.53
2023-03-06T16:20:20.058Z,14.52
2023-03-06T16:22:48.038Z,14.51
2023-03-06T16:25:15.949Z,14.51
2023-03-06T16:27:55.503Z,14.51
2023-03-06T16:30:23.496Z,14.51
2023-03-06T16:32:50.221Z,14.51
2023-03-06T16:35:18.500Z,14.51
2023-03-06T16:37:46.102Z,14.49
2023-03-06T16:40:32.346Z,14.49
2023-03-06T16:42:58.933Z,14.47
2023-03-06T16:45:25.497Z,14.47
2023-03-06T16:47:52.262Z,14.46
2023-03-06T16:50:38.141Z,14.45
2023-03-06T16:53:05.460Z,14.43
2023-03-06T16:55:32.296Z,14.43
2023-03-06T16:57:58.880Z,14.43
2023-03-06T17:01:39.836Z,14.43
2023-03-06T17:04:06.484Z,14.42
2023-03-06T17:06:33.151Z,14.41
2023-03-06T17:09:00.141Z,14.39
2023-03-06T17:11:27.298Z,14.40
2023-03-06T17:13:55.275Z,14.42
2023-03-06T17:16:21.991Z,14.42
2023-03-06T17:18:49.537Z,14.41
2023-03-06T17:21:16.212Z,14.43
2023-03-06T17:23:43.092Z,14.44
2023-03-06T17:26:14.747Z,14.48
2023-03-06T17:28:41.999Z,14.49
2023-03-06T17:31:17.659Z,14.49
2023-03-06T17:33:44.561Z,14.51
2023-03-06T17:36:11.552Z,14.51
2023-03-06T17:38:38.279Z,14.50
2023-03-06T17:41:06.443Z,14.51
2023-03-06T17:43:33.780Z,14.51
2023-03-06T17:46:08.027Z,14.50
2023-03-06T17:48:34.856Z,14.49
2023-03-06T17:51:02.289Z,14.50
2023-03-06T17:53:29.042Z,14.47
2023-03-06T17:55:58.228Z,14.46
2023-03-06T17:58:25.807Z,14.44
2023-03-06T18:00:52.430Z,14.45
2023-03-06T18:03:19.157Z,14.43
2023-03-06T18:05:45.759Z,14.44
2023-03-06T18:08:12.466Z,14.43
2023-03-06T18:10:40.493Z,14.42
2023-03-06T18:13:08.374Z,14.43
2023-03-06T18:15:38.565Z,14.42
2023-03-06T18:18:05.285Z,14.40
2023-03-06T18:20:32.823Z,14.39
2023-03-06T18:23:03.446Z,14.39
2023-03-06T18:25:32.753Z,14.39
2023-03-06T18:27:59.666Z,14.39
2023-03-06T18:30:26.581Z,14.36
2023-03-06T18:32:53.867Z,14.38
2023-03-06T18:35:21.074Z,14.39
2023-03-06T18:37:47.681Z,14.39
2023-03-06T18:40:14.525Z,14.41
2023-03-06T18:42:41.119Z,14.41
2023-03-06T18:45:08.205Z,14.42
2023-03-06T18:47:34.776Z,14.43
2023-03-06T18:50:02.801Z,14.44
2023-03-06T18:52:29.342Z,14.43
2023-03-06T18:54:55.958Z,14.44
2023-03-06T18:57:22.814Z,14.46
2023-03-06T18:59:49.385Z,14.45
2023-03-06T19:02:15.970Z,14.44
2023-03-06T19:04:42.518Z,14.44
2023-03-06T19:07:09.133Z,14.44
2023-03-06T19:09:35.727Z,14.43
2023-03-06T19:12:03.516Z,14.41
2023-03-06T19:14:30.216Z,14.40
2023-03-06T19:16:56.862Z,14.41
2023-03-06T19:19:26.302Z,14.40
2023-03-06T19:21:53.641Z,14.42
2023-03-06T19:24:20.237Z,14.42
2023-03-06T19:26:46.901Z,14.40
2023-03-06T19:29:13.480Z,14.40
2023-03-06T19:31:40.135Z,14.40
2023-03-06T19:34:06.693Z,14.39
2023-03-06T19:36:34.263Z,14.39
2023-03-06T19:39:03.086Z,14.39
2023-03-06T19:41:29.784Z,14.39
2023-03-06T19:43:58.873Z,14.38
2023-03-06T19:46:26.125Z,14.38
2023-03-06T19:48:57.641Z,14.36
2023-03-06T19:51:25.216Z,14.38
2023-03-06T19:53:52.040Z,14.37
2023-03-06T19:56:29.033Z,14.38
2023-03-06T19:58:56.024Z,14.39
2023-03-06T20:01:25.504Z,14.39
2023-03-06T20:03:59.241Z,14.39
2023-03-06T20:06:29.075Z,14.41
2023-03-06T20:08:55.759Z,14.43
2023-03-06T20:11:25.745Z,14.43
2023-03-06T20:13:52.634Z,14.44
2023-03-06T20:16:19.305Z,14.43
2023-03-06T20:18:45.894Z,14.42
2023-03-06T20:21:12.947Z,14.41
2023-03-06T20:23:39.545Z,14.41
2023-03-06T20:26:11.962Z,14.41
2023-03-06T20:28:39.587Z,14.41
2023-03-06T20:31:20.440Z,14.39
2023-03-06T20:33:49.156Z,14.38
2023-03-06T20:36:27.961Z,14.38
2023-03-06T20:38:55.341Z,14.37
2023-03-06T20:41:24.936Z,14.36
2023-03-06T20:43:52.069Z,14.36
2023-03-06T20:46:22.800Z,14.35
2023-03-06T20:48:50.502Z,14.34
2023-03-06T20:51:20.948Z,14.33
2023-03-06T20:53:49.031Z,14.35
2023-03-06T20:56:17.644Z,14.33
2023-03-06T20:58:44.566Z,14.34
2023-03-06T21:01:25.644Z,14.32
2023-03-06T21:03:52.681Z,14.32
2023-03-06T21:06:20.127Z,14.31
2023-03-06T21:08:47.164Z,14.33
2023-03-06T21:11:14.075Z,14.32
2023-03-06T21:13:40.864Z,14.33
2023-03-06T21:16:14.550Z,14.35
2023-03-06T21:18:41.583Z,14.37
2023-03-06T21:21:18.361Z,14.37
2023-03-06T21:23:46.276Z,14.39
2023-03-06T21:26:14.561Z,14.39
2023-03-06T21:28:41.318Z,14.39
2023-03-06T21:31:09.400Z,14.41
2023-03-06T21:33:36.439Z,14.42
2023-03-06T21:36:03.633Z,14.42
2023-03-06T21:38:30.385Z,14.42
2023-03-06T21:40:56.962Z,14.42
2023-03-06T21:43:23.490Z,14.41
2023-03-06T21:45:52.687Z,14.40
2023-03-06T21:48:19.336Z,14.40
2023-03-06T21:50:45.881Z,14.38
2023-03-06T21:53:12.512Z,14.38
2023-03-06T21:55:40.615Z,14.36
2023-03-06T21:58:07.500Z,14.36
2023-03-06T22:00:36.369Z,14.36
2023-03-06T22:03:04.692Z,14.35
2023-03-06T22:05:34.363Z,14.34
2023-03-06T22:08:00.902Z,14.34
2023-03-06T22:10:27.495Z,14.33
2023-03-06T22:12:54.073Z,14.32
2023-03-06T22:15:21.861Z,14.33
2023-03-06T22:17:48.702Z,14.32
2023-03-06T22:20:15.522Z,14.32
2023-03-06T22:22:42.450Z,14.31
2023-03-06T22:25:09.437Z,14.31
2023-03-06T22:27:36.091Z,14.32
2023-03-06T22:30:02.749Z,14.32
2023-03-06T22:32:29.331Z,14.31
2023-03-06T22:34:55.874Z,14.33
2023-03-06T22:37:22.445Z,14.35
2023-03-06T22:39:49.018Z,14.36
2023-03-06T22:42:15.606Z,14.36
2023-03-06T22:44:42.154Z,14.36
2023-03-06T22:47:08.733Z,14.38
2023-03-06T22:49:35.262Z,14.38
2023-03-06T22:52:02.342Z,14.38
2023-03-06T22:54:28.892Z,14.38
2023-03-06T22:56:55.428Z,14.37
2023-03-06T22:59:21.988Z,14.37
2023-03-06T23:01:48.553Z,14.36
2023-03-06T23:04:15.333Z,14.36
2023-03-06T23:06:43.117Z,14.36
2023-03-06T23:09:18.236Z,14.35
2023-03-06T23:11:44.794Z,14.34
2023-03-06T23:14:12.658Z,14.34
2023-03-06T23:16:39.319Z,14.34
2023-03-06T23:19:06.259Z,14.34
2023-03-06T23:21:34.170Z,14.33
2023-03-06T23:24:01.267Z,14.33
2023-03-06T23:26:29.302Z,14.32
2023-03-06T23:28:56.908Z,14.33
2023-03-06T23:31:28.660Z,14.32
2023-03-06T23:34:00.455Z,14.32
2023-03-06T23:36:27.833Z,14.32
2023-03-06T23:38:55.198Z,14.31
2023-03-06T23:41:22.492Z,14.31
2023-03-06T23:43:50.175Z,14.31
2023-03-06T23:46:17.763Z,14.31
2023-03-06T23:48:44.778Z,14.32
2023-03-06T23:51:19.279Z,14.32
2023-03-06T23:53:47.007Z,14.33
2023-03-06T23:56:14.181Z,14.34
2023-03-06T23:58:40.916Z,14.35
